Providence, Rhode Island
Traffic Map
Current Weather Conditions
Providence, Rhode Island
Overcast
Overcast
37°
Feels Like: 30°
Wind Chill: 30° Ceiling: 2200
Heat Index: 37° Visibility: 10mi
Dew Point: 31° Wind: 9mph
Humidity: 79% Direction: 350° (N)
Pressure: 29.96in Gusts: 0mph
Raw Report DataKPVD 272051Z 35008KT 10SM SCT014 OVC022 03/M01 A2996 RMK AO2 RAE34 SLP147 P0000 60000 T00281006 53007
Traffic Incident Summary
Active as of:
Severity:
Category:
InformationThere was an issue retrieving the traffic information for this location. Please try a different location or try again shortly.
Advertisements
Track Severe Weather on mobile